This is the latest recevied weather packets stored in our database for station/object KO4IEJ. If no packets are shown the sender has not sent any weather packets the latest 10 day(s).
| Time | Temp. | Humidity | Pressure | Rain* | Wind** | Luminosity | Snow |
|---|---|---|---|---|---|---|---|
| 1777815064 | 7.22° C | 49% | 1023.4 hPa | 0 mm | - | - | - |
| 1777810565 | 1.67° C | 64% | 1022.6 hPa | 0 mm | - | - | - |
| 1777808774 | 3.33° C | 56% | 1022.5 hPa | 0 mm | - | - | - |
| 1777807860 | 5.56° C | 44% | 1022.5 hPa | 0 mm | - | - | - |
| 1777803351 | 6.67° C | 38% | 1022.9 hPa | 0 mm | - | - | - |
| 1777792550 | 6.67° C | 34% | 1023.2 hPa | 0 mm | - | - | - |
| 1777790751 | 8.33° C | 29% | 1023.1 hPa | 0 mm | - | - | - |
| 1777788951 | 7.78° C | 31% | 1023.2 hPa | 0 mm | - | - | - |
| 1777783554 | 4.44° C | 42% | 1023.5 hPa | 0 mm | - | - | - |
| 1777781758 | 8.33° C | 26% | 1023.4 hPa | 0 mm | - | - | - |
| 1777778160 | 8.33° C | 24% | 1023 hPa | 0 mm | - | - | - |
| 1777773656 | 4.44° C | 44% | 1022.9 hPa | 0 mm | - | - | - |
| 1777766465 | 12.22° C | 32% | 1023 hPa | 0 mm | - | - | - |
| 1777761051 | 11.67° C | 32% | 1023.2 hPa | 0 mm | - | - | - |
| 1777759260 | 12.78° C | 38% | 1023.4 hPa | 0 mm | - | - | - |
| 1777754755 | 11.67° C | 38% | 1024.5 hPa | 0 mm | - | - | - |
| 1777752057 | 12.78° C | 39% | 1024.5 hPa | 2.29 mm | - | - | - |
| 1777743981 | 8.89° C | 44% | 1025.8 hPa | 0.25 mm | - | - | - |
| 1777743059 | 8.33° C | 44% | 1025.9 hPa | 0 mm | - | - | - |
| 1777741254 | 7.78° C | 45% | 1026.1 hPa | 0 mm | - | - | - |
| 1777739456 | 6.67° C | 45% | 1026.1 hPa | 0 mm | - | - | - |
| 1777736763 | 5.56° C | 55% | 1026 hPa | 0 mm | - | - | - |
| 1777734070 | 4.44° C | 60% | 1026.3 hPa | 0 mm | - | - | - |
| 1777733158 | 3.89° C | 56% | 1026.3 hPa | 0 mm | - | - | - |
| 1777725057 | -3.89° C | 88% | 1025.4 hPa | 0 mm | - | - | - |
* Rain latest hour (hover to see other rain measurements)
** Current wind speed in m/s (hover to see current wind gust speed)